Lamont, Wyoming
Current Conditions -  °F | °C
As of 4:55 PM on Saturday 22 Nov 2014 (Local Time) from KFWZ Reporting Station
Haze Haze  
Wind Chill: -6°   Ceiling: 1000
Heat Index:   Visibility: 5mi
Dew Point: -3°   Wind: 16mph
Humidity: 80%   Direction: 260°W
Pressure: 29.54"   Gusts: 25mph
Location:  42.1657°N, 107.989°W
Report Text: KFWZ 222355Z AUTO 26014G22KT 5SM HZ SCT006 BKN010 BKN015 00/M03 A2954 RMK AO2
Loading
Personal Weather Stations






























Interactive Weather Map New forecast layout! Learn more

10-Day Weather Forecast

Advertisements
Track Severe Weather on mobile